Terminal Aerodrome Forecast
Issued by NWS

Home | Current Version | Previous Version | Text Only | Print | Product List | Glossary On
Versions: 1 2 3 4 5 6 7 8 9 10 11 12 13 14 15 16 17 18 19 20 21 22 23 24
120
FTUS46 KOTX 201733
TAFCOE
TAF
KCOE 201733Z 2018/2118 18008KT P6SM FEW100 SCT200 BKN250
     FM202000 24008G13KT P6SM SCT200
     FM210300 14004KT P6SM FEW200
     FM211600 VRB05KT P6SM SCT300=

USA.gov is the U.S. government's official web portal to all federal, state and local government web resources and services.